sensor_id;sensor_type;location;lat;lon;timestamp;P1;durP1;ratioP1;P2;durP2;ratioP2
13973;SDS011;7060;43.770;4.008;2023-04-09T00:01:02;0.83;;;0.40;;
13973;SDS011;7060;43.770;4.008;2023-04-09T00:03:31;1.00;;;0.60;;
13973;SDS011;7060;43.770;4.008;2023-04-09T00:06:00;1.47;;;0.80;;
13973;SDS011;7060;43.770;4.008;2023-04-09T00:08:29;1.53;;;0.60;;
13973;SDS011;7060;43.770;4.008;2023-04-09T00:10:58;2.50;;;0.70;;
13973;SDS011;7060;43.770;4.008;2023-04-09T00:13:28;1.37;;;0.73;;
13973;SDS011;7060;43.770;4.008;2023-04-09T00:16:06;1.93;;;0.50;;
13973;SDS011;7060;43.770;4.008;2023-04-09T00:18:35;0.97;;;0.60;;
13973;SDS011;7060;43.770;4.008;2023-04-09T00:21:03;1.23;;;0.50;;
13973;SDS011;7060;43.770;4.008;2023-04-09T00:23:34;1.00;;;0.63;;
13973;SDS011;7060;43.770;4.008;2023-04-09T00:26:03;1.00;;;0.57;;
13973;SDS011;7060;43.770;4.008;2023-04-09T00:31:04;1.47;;;0.60;;
13973;SDS011;7060;43.770;4.008;2023-04-09T00:33:33;0.90;;;0.60;;
13973;SDS011;7060;43.770;4.008;2023-04-09T00:36:02;1.73;;;0.80;;
13973;SDS011;7060;43.770;4.008;2023-04-09T00:38:30;3.30;;;0.53;;
13973;SDS011;7060;43.770;4.008;2023-04-09T00:40:59;2.33;;;0.70;;
13973;SDS011;7060;43.770;4.008;2023-04-09T00:43:27;1.23;;;0.50;;
13973;SDS011;7060;43.770;4.008;2023-04-09T00:45:58;3.00;;;0.53;;
13973;SDS011;7060;43.770;4.008;2023-04-09T00:48:27;0.87;;;0.60;;
13973;SDS011;7060;43.770;4.008;2023-04-09T00:50:56;1.00;;;0.57;;
13973;SDS011;7060;43.770;4.008;2023-04-09T00:53:24;0.93;;;0.50;;
13973;SDS011;7060;43.770;4.008;2023-04-09T00:55:53;0.83;;;0.60;;
13973;SDS011;7060;43.770;4.008;2023-04-09T00:58:22;1.03;;;0.60;;
13973;SDS011;7060;43.770;4.008;2023-04-09T01:00:51;0.93;;;0.50;;
13973;SDS011;7060;43.770;4.008;2023-04-09T01:03:22;0.80;;;0.50;;
13973;SDS011;7060;43.770;4.008;2023-04-09T01:05:53;1.30;;;0.77;;
13973;SDS011;7060;43.770;4.008;2023-04-09T01:08:31;1.80;;;0.30;;
13973;SDS011;7060;43.770;4.008;2023-04-09T01:11:07;0.80;;;0.50;;
13973;SDS011;7060;43.770;4.008;2023-04-09T01:13:53;0.73;;;0.40;;
13973;SDS011;7060;43.770;4.008;2023-04-09T01:16:33;1.77;;;0.50;;
13973;SDS011;7060;43.770;4.008;2023-04-09T01:19:08;0.90;;;0.53;;
13973;SDS011;7060;43.770;4.008;2023-04-09T01:21:44;1.00;;;0.70;;
13973;SDS011;7060;43.770;4.008;2023-04-09T01:24:18;0.93;;;0.57;;
13973;SDS011;7060;43.770;4.008;2023-04-09T01:27:00;1.93;;;0.60;;
13973;SDS011;7060;43.770;4.008;2023-04-09T01:29:59;1.83;;;0.70;;
13973;SDS011;7060;43.770;4.008;2023-04-09T01:32:31;0.67;;;0.50;;
13973;SDS011;7060;43.770;4.008;2023-04-09T01:35:04;1.73;;;0.53;;
13973;SDS011;7060;43.770;4.008;2023-04-09T01:37:35;1.43;;;0.77;;
13973;SDS011;7060;43.770;4.008;2023-04-09T01:40:06;1.13;;;0.87;;
13973;SDS011;7060;43.770;4.008;2023-04-09T01:42:35;1.10;;;0.63;;
13973;SDS011;7060;43.770;4.008;2023-04-09T01:45:07;1.73;;;0.50;;
13973;SDS011;7060;43.770;4.008;2023-04-09T01:47:40;0.93;;;0.60;;
13973;SDS011;7060;43.770;4.008;2023-04-09T01:50:09;1.03;;;0.50;;
13973;SDS011;7060;43.770;4.008;2023-04-09T01:52:38;2.17;;;0.60;;
13973;SDS011;7060;43.770;4.008;2023-04-09T01:55:06;3.33;;;0.60;;
13973;SDS011;7060;43.770;4.008;2023-04-09T01:57:35;0.80;;;0.50;;
13973;SDS011;7060;43.770;4.008;2023-04-09T02:00:04;1.33;;;0.60;;
13973;SDS011;7060;43.770;4.008;2023-04-09T02:02:45;4.73;;;0.60;;
13973;SDS011;7060;43.770;4.008;2023-04-09T02:05:20;0.83;;;0.40;;
13973;SDS011;7060;43.770;4.008;2023-04-09T02:07:54;1.37;;;0.47;;
13973;SDS011;7060;43.770;4.008;2023-04-09T02:10:27;0.70;;;0.50;;
13973;SDS011;7060;43.770;4.008;2023-04-09T02:12:58;0.80;;;0.50;;
13973;SDS011;7060;43.770;4.008;2023-04-09T02:15:31;1.07;;;0.60;;
13973;SDS011;7060;43.770;4.008;2023-04-09T02:18:03;2.13;;;0.60;;
13973;SDS011;7060;43.770;4.008;2023-04-09T02:20:32;0.87;;;0.80;;
13973;SDS011;7060;43.770;4.008;2023-04-09T02:23:00;0.97;;;0.57;;
13973;SDS011;7060;43.770;4.008;2023-04-09T02:25:29;1.70;;;0.67;;
13973;SDS011;7060;43.770;4.008;2023-04-09T02:27:58;2.17;;;0.70;;
13973;SDS011;7060;43.770;4.008;2023-04-09T02:30:26;1.90;;;0.70;;
13973;SDS011;7060;43.770;4.008;2023-04-09T02:32:56;4.90;;;0.97;;
13973;SDS011;7060;43.770;4.008;2023-04-09T02:35:25;2.00;;;0.80;;
13973;SDS011;7060;43.770;4.008;2023-04-09T02:37:53;1.67;;;0.70;;
13973;SDS011;7060;43.770;4.008;2023-04-09T02:40:22;0.80;;;0.60;;
13973;SDS011;7060;43.770;4.008;2023-04-09T02:42:50;1.80;;;0.60;;
13973;SDS011;7060;43.770;4.008;2023-04-09T02:45:20;1.10;;;0.57;;
13973;SDS011;7060;43.770;4.008;2023-04-09T02:47:48;1.77;;;0.90;;
13973;SDS011;7060;43.770;4.008;2023-04-09T02:50:18;1.80;;;0.93;;
13973;SDS011;7060;43.770;4.008;2023-04-09T02:52:50;1.70;;;1.00;;
13973;SDS011;7060;43.770;4.008;2023-04-09T02:55:18;1.60;;;0.80;;
13973;SDS011;7060;43.770;4.008;2023-04-09T02:57:47;1.27;;;0.60;;
13973;SDS011;7060;43.770;4.008;2023-04-09T03:00:16;1.73;;;0.80;;
13973;SDS011;7060;43.770;4.008;2023-04-09T03:02:44;1.83;;;0.70;;
13973;SDS011;7060;43.770;4.008;2023-04-09T03:05:13;1.07;;;0.50;;
13973;SDS011;7060;43.770;4.008;2023-04-09T03:07:43;1.17;;;0.70;;
13973;SDS011;7060;43.770;4.008;2023-04-09T03:10:13;1.30;;;0.60;;
13973;SDS011;7060;43.770;4.008;2023-04-09T03:12:41;2.00;;;0.50;;
13973;SDS011;7060;43.770;4.008;2023-04-09T03:15:10;2.13;;;0.70;;
13973;SDS011;7060;43.770;4.008;2023-04-09T03:17:38;3.80;;;0.70;;
13973;SDS011;7060;43.770;4.008;2023-04-09T03:20:07;2.97;;;0.80;;
13973;SDS011;7060;43.770;4.008;2023-04-09T03:22:37;1.67;;;0.70;;
13973;SDS011;7060;43.770;4.008;2023-04-09T03:25:19;1.43;;;0.70;;
13973;SDS011;7060;43.770;4.008;2023-04-09T03:27:51;2.97;;;1.10;;
13973;SDS011;7060;43.770;4.008;2023-04-09T03:30:39;2.43;;;0.70;;
13973;SDS011;7060;43.770;4.008;2023-04-09T03:33:08;3.13;;;0.90;;
13973;SDS011;7060;43.770;4.008;2023-04-09T03:35:46;1.23;;;0.67;;
13973;SDS011;7060;43.770;4.008;2023-04-09T03:38:20;1.67;;;0.70;;
13973;SDS011;7060;43.770;4.008;2023-04-09T03:40:50;1.57;;;0.77;;
13973;SDS011;7060;43.770;4.008;2023-04-09T03:43:19;1.27;;;0.80;;
13973;SDS011;7060;43.770;4.008;2023-04-09T03:45:50;1.40;;;0.73;;
13973;SDS011;7060;43.770;4.008;2023-04-09T03:48:22;3.07;;;0.87;;
13973;SDS011;7060;43.770;4.008;2023-04-09T03:50:50;1.37;;;0.70;;
13973;SDS011;7060;43.770;4.008;2023-04-09T03:53:28;2.10;;;0.90;;
13973;SDS011;7060;43.770;4.008;2023-04-09T03:56:03;1.53;;;0.57;;
13973;SDS011;7060;43.770;4.008;2023-04-09T03:58:33;1.03;;;0.70;;
13973;SDS011;7060;43.770;4.008;2023-04-09T04:01:02;0.90;;;0.60;;
13973;SDS011;7060;43.770;4.008;2023-04-09T04:03:50;2.37;;;0.70;;
13973;SDS011;7060;43.770;4.008;2023-04-09T04:06:23;1.00;;;0.67;;
13973;SDS011;7060;43.770;4.008;2023-04-09T04:09:01;1.33;;;0.60;;
13973;SDS011;7060;43.770;4.008;2023-04-09T04:11:42;0.60;;;0.50;;
13973;SDS011;7060;43.770;4.008;2023-04-09T04:14:10;0.90;;;0.60;;
13973;SDS011;7060;43.770;4.008;2023-04-09T04:16:41;1.23;;;0.70;;
13973;SDS011;7060;43.770;4.008;2023-04-09T04:19:14;1.53;;;0.70;;
13973;SDS011;7060;43.770;4.008;2023-04-09T04:21:46;1.10;;;0.60;;
13973;SDS011;7060;43.770;4.008;2023-04-09T04:24:15;2.07;;;0.60;;
13973;SDS011;7060;43.770;4.008;2023-04-09T04:26:45;1.77;;;0.70;;
13973;SDS011;7060;43.770;4.008;2023-04-09T04:29:16;1.43;;;0.67;;
13973;SDS011;7060;43.770;4.008;2023-04-09T04:31:50;2.47;;;0.70;;
13973;SDS011;7060;43.770;4.008;2023-04-09T04:34:21;1.03;;;0.50;;
13973;SDS011;7060;43.770;4.008;2023-04-09T04:36:59;1.43;;;0.70;;
13973;SDS011;7060;43.770;4.008;2023-04-09T04:39:30;2.20;;;0.60;;
13973;SDS011;7060;43.770;4.008;2023-04-09T04:42:09;1.50;;;0.60;;
13973;SDS011;7060;43.770;4.008;2023-04-09T04:44:38;1.07;;;0.70;;
13973;SDS011;7060;43.770;4.008;2023-04-09T04:47:13;1.20;;;0.60;;
13973;SDS011;7060;43.770;4.008;2023-04-09T04:49:41;2.30;;;0.60;;
13973;SDS011;7060;43.770;4.008;2023-04-09T04:52:10;1.53;;;0.70;;
13973;SDS011;7060;43.770;4.008;2023-04-09T04:54:43;1.20;;;0.57;;
13973;SDS011;7060;43.770;4.008;2023-04-09T04:57:18;1.20;;;0.77;;
13973;SDS011;7060;43.770;4.008;2023-04-09T04:59:47;1.40;;;0.60;;
13973;SDS011;7060;43.770;4.008;2023-04-09T05:02:16;0.70;;;0.50;;
13973;SDS011;7060;43.770;4.008;2023-04-09T05:05:11;3.17;;;0.57;;
13973;SDS011;7060;43.770;4.008;2023-04-09T05:07:46;1.43;;;0.70;;
13973;SDS011;7060;43.770;4.008;2023-04-09T05:10:14;3.67;;;0.67;;
13973;SDS011;7060;43.770;4.008;2023-04-09T05:12:45;2.70;;;0.53;;
13973;SDS011;7060;43.770;4.008;2023-04-09T05:15:23;0.57;;;0.50;;
13973;SDS011;7060;43.770;4.008;2023-04-09T05:17:52;0.93;;;0.50;;
13973;SDS011;7060;43.770;4.008;2023-04-09T05:20:21;0.90;;;0.57;;
13973;SDS011;7060;43.770;4.008;2023-04-09T05:23:00;1.20;;;0.60;;
13973;SDS011;7060;43.770;4.008;2023-04-09T05:25:34;2.83;;;0.80;;
13973;SDS011;7060;43.770;4.008;2023-04-09T05:28:04;1.10;;;0.60;;
13973;SDS011;7060;43.770;4.008;2023-04-09T05:30:34;1.57;;;0.70;;
13973;SDS011;7060;43.770;4.008;2023-04-09T05:33:03;1.33;;;0.63;;
13973;SDS011;7060;43.770;4.008;2023-04-09T05:35:32;2.20;;;0.87;;
13973;SDS011;7060;43.770;4.008;2023-04-09T05:38:02;1.13;;;0.70;;
13973;SDS011;7060;43.770;4.008;2023-04-09T05:40:30;1.57;;;1.47;;
13973;SDS011;7060;43.770;4.008;2023-04-09T05:42:59;3.13;;;0.60;;
13973;SDS011;7060;43.770;4.008;2023-04-09T05:45:38;0.90;;;0.60;;
13973;SDS011;7060;43.770;4.008;2023-04-09T05:48:06;0.90;;;0.63;;
13973;SDS011;7060;43.770;4.008;2023-04-09T05:50:36;1.10;;;0.60;;
13973;SDS011;7060;43.770;4.008;2023-04-09T05:53:21;0.83;;;0.57;;
13973;SDS011;7060;43.770;4.008;2023-04-09T05:55:50;1.40;;;0.80;;
13973;SDS011;7060;43.770;4.008;2023-04-09T05:58:22;1.00;;;0.60;;
13973;SDS011;7060;43.770;4.008;2023-04-09T06:00:52;1.77;;;0.90;;
13973;SDS011;7060;43.770;4.008;2023-04-09T06:03:21;1.27;;;0.70;;
13973;SDS011;7060;43.770;4.008;2023-04-09T06:05:51;0.83;;;0.60;;
13973;SDS011;7060;43.770;4.008;2023-04-09T06:08:19;1.23;;;0.60;;
13973;SDS011;7060;43.770;4.008;2023-04-09T06:10:48;1.03;;;0.63;;
13973;SDS011;7060;43.770;4.008;2023-04-09T06:13:16;1.57;;;0.80;;
13973;SDS011;7060;43.770;4.008;2023-04-09T06:15:45;2.53;;;0.60;;
13973;SDS011;7060;43.770;4.008;2023-04-09T06:18:15;1.03;;;0.60;;
13973;SDS011;7060;43.770;4.008;2023-04-09T06:20:43;0.63;;;0.50;;
13973;SDS011;7060;43.770;4.008;2023-04-09T06:23:12;1.70;;;0.60;;
13973;SDS011;7060;43.770;4.008;2023-04-09T06:25:40;2.30;;;0.80;;
13973;SDS011;7060;43.770;4.008;2023-04-09T06:28:09;1.37;;;0.77;;
13973;SDS011;7060;43.770;4.008;2023-04-09T06:30:37;0.90;;;0.60;;
13973;SDS011;7060;43.770;4.008;2023-04-09T06:33:06;1.73;;;0.70;;
13973;SDS011;7060;43.770;4.008;2023-04-09T06:35:36;1.33;;;0.70;;
13973;SDS011;7060;43.770;4.008;2023-04-09T06:38:04;0.97;;;0.80;;
13973;SDS011;7060;43.770;4.008;2023-04-09T06:40:35;2.03;;;1.07;;
13973;SDS011;7060;43.770;4.008;2023-04-09T06:43:05;1.37;;;1.10;;
13973;SDS011;7060;43.770;4.008;2023-04-09T06:45:49;1.83;;;1.60;;
13973;SDS011;7060;43.770;4.008;2023-04-09T06:48:17;2.17;;;1.40;;
13973;SDS011;7060;43.770;4.008;2023-04-09T06:50:47;2.53;;;1.60;;
13973;SDS011;7060;43.770;4.008;2023-04-09T06:53:16;2.17;;;1.10;;
13973;SDS011;7060;43.770;4.008;2023-04-09T06:55:44;1.50;;;1.40;;
13973;SDS011;7060;43.770;4.008;2023-04-09T06:58:13;1.90;;;1.70;;
13973;SDS011;7060;43.770;4.008;2023-04-09T07:00:42;2.60;;;2.17;;
13973;SDS011;7060;43.770;4.008;2023-04-09T07:03:10;2.70;;;1.80;;
13973;SDS011;7060;43.770;4.008;2023-04-09T07:05:39;2.13;;;1.90;;
13973;SDS011;7060;43.770;4.008;2023-04-09T07:08:09;1.90;;;1.40;;
13973;SDS011;7060;43.770;4.008;2023-04-09T07:10:37;1.60;;;1.37;;
13973;SDS011;7060;43.770;4.008;2023-04-09T07:13:06;6.47;;;3.57;;
13973;SDS011;7060;43.770;4.008;2023-04-09T07:15:34;10.77;;;6.57;;
13973;SDS011;7060;43.770;4.008;2023-04-09T07:18:04;11.37;;;6.83;;
13973;SDS011;7060;43.770;4.008;2023-04-09T07:20:33;8.03;;;5.70;;
13973;SDS011;7060;43.770;4.008;2023-04-09T07:23:01;3.70;;;1.97;;
13973;SDS011;7060;43.770;4.008;2023-04-09T07:25:31;4.30;;;1.90;;
13973;SDS011;7060;43.770;4.008;2023-04-09T07:28:00;1.40;;;0.70;;
13973;SDS011;7060;43.770;4.008;2023-04-09T07:30:28;1.83;;;0.83;;
13973;SDS011;7060;43.770;4.008;2023-04-09T07:32:57;1.67;;;0.80;;
13973;SDS011;7060;43.770;4.008;2023-04-09T07:35:26;1.40;;;0.97;;
13973;SDS011;7060;43.770;4.008;2023-04-09T07:37:54;2.23;;;0.70;;
13973;SDS011;7060;43.770;4.008;2023-04-09T07:40:23;2.60;;;0.60;;
13973;SDS011;7060;43.770;4.008;2023-04-09T07:42:52;2.53;;;0.53;;
13973;SDS011;7060;43.770;4.008;2023-04-09T07:45:22;1.27;;;0.70;;
13973;SDS011;7060;43.770;4.008;2023-04-09T07:47:50;0.40;;;0.40;;
13973;SDS011;7060;43.770;4.008;2023-04-09T07:50:18;0.60;;;0.50;;
13973;SDS011;7060;43.770;4.008;2023-04-09T07:52:47;1.13;;;0.60;;
13973;SDS011;7060;43.770;4.008;2023-04-09T07:55:15;0.90;;;0.60;;
13973;SDS011;7060;43.770;4.008;2023-04-09T07:57:45;1.03;;;0.50;;
13973;SDS011;7060;43.770;4.008;2023-04-09T08:00:16;1.30;;;0.60;;
13973;SDS011;7060;43.770;4.008;2023-04-09T08:02:45;2.47;;;0.70;;
13973;SDS011;7060;43.770;4.008;2023-04-09T08:05:14;1.67;;;0.67;;
13973;SDS011;7060;43.770;4.008;2023-04-09T08:07:43;0.60;;;0.50;;
13973;SDS011;7060;43.770;4.008;2023-04-09T08:10:11;1.03;;;0.60;;
13973;SDS011;7060;43.770;4.008;2023-04-09T08:12:41;1.40;;;0.50;;
13973;SDS011;7060;43.770;4.008;2023-04-09T08:15:10;1.07;;;0.60;;
13973;SDS011;7060;43.770;4.008;2023-04-09T08:17:40;0.63;;;0.50;;
13973;SDS011;7060;43.770;4.008;2023-04-09T08:20:09;0.90;;;0.57;;
13973;SDS011;7060;43.770;4.008;2023-04-09T08:22:38;1.47;;;0.60;;
13973;SDS011;7060;43.770;4.008;2023-04-09T08:25:08;0.47;;;0.30;;
13973;SDS011;7060;43.770;4.008;2023-04-09T08:27:36;0.50;;;0.50;;
13973;SDS011;7060;43.770;4.008;2023-04-09T08:30:06;1.17;;;0.67;;
13973;SDS011;7060;43.770;4.008;2023-04-09T08:32:35;0.63;;;0.40;;
13973;SDS011;7060;43.770;4.008;2023-04-09T08:35:05;0.53;;;0.50;;
13973;SDS011;7060;43.770;4.008;2023-04-09T08:37:34;0.80;;;0.40;;
13973;SDS011;7060;43.770;4.008;2023-04-09T08:40:03;0.50;;;0.40;;
13973;SDS011;7060;43.770;4.008;2023-04-09T08:42:32;1.10;;;0.60;;
13973;SDS011;7060;43.770;4.008;2023-04-09T08:45:03;1.10;;;0.50;;
13973;SDS011;7060;43.770;4.008;2023-04-09T08:47:32;1.27;;;0.50;;
13973;SDS011;7060;43.770;4.008;2023-04-09T08:50:02;0.90;;;0.40;;
13973;SDS011;7060;43.770;4.008;2023-04-09T08:52:33;1.70;;;0.30;;
13973;SDS011;7060;43.770;4.008;2023-04-09T08:55:02;0.70;;;0.43;;
13973;SDS011;7060;43.770;4.008;2023-04-09T08:57:35;0.60;;;0.40;;
13973;SDS011;7060;43.770;4.008;2023-04-09T09:00:05;0.90;;;0.50;;
13973;SDS011;7060;43.770;4.008;2023-04-09T09:02:35;0.70;;;0.40;;
13973;SDS011;7060;43.770;4.008;2023-04-09T09:05:06;0.83;;;0.40;;
13973;SDS011;7060;43.770;4.008;2023-04-09T09:07:35;0.43;;;0.40;;
13973;SDS011;7060;43.770;4.008;2023-04-09T09:10:03;0.77;;;0.40;;
13973;SDS011;7060;43.770;4.008;2023-04-09T09:12:33;0.50;;;0.40;;
13973;SDS011;7060;43.770;4.008;2023-04-09T09:15:04;0.63;;;0.50;;
13973;SDS011;7060;43.770;4.008;2023-04-09T09:17:52;0.53;;;0.40;;
13973;SDS011;7060;43.770;4.008;2023-04-09T09:20:24;0.40;;;0.40;;
13973;SDS011;7060;43.770;4.008;2023-04-09T09:22:53;1.37;;;0.40;;
13973;SDS011;7060;43.770;4.008;2023-04-09T09:25:23;1.47;;;0.60;;
13973;SDS011;7060;43.770;4.008;2023-04-09T09:27:52;0.50;;;0.40;;
13973;SDS011;7060;43.770;4.008;2023-04-09T09:30:21;0.80;;;0.50;;
13973;SDS011;7060;43.770;4.008;2023-04-09T09:32:51;3.03;;;0.50;;
13973;SDS011;7060;43.770;4.008;2023-04-09T09:35:21;0.93;;;0.40;;
13973;SDS011;7060;43.770;4.008;2023-04-09T09:38:00;0.40;;;0.30;;
13973;SDS011;7060;43.770;4.008;2023-04-09T09:40:31;6.37;;;0.87;;
13973;SDS011;7060;43.770;4.008;2023-04-09T09:42:59;0.40;;;0.40;;
13973;SDS011;7060;43.770;4.008;2023-04-09T09:45:27;1.40;;;0.40;;
13973;SDS011;7060;43.770;4.008;2023-04-09T09:47:57;0.50;;;0.40;;
13973;SDS011;7060;43.770;4.008;2023-04-09T09:50:25;0.23;;;0.20;;
13973;SDS011;7060;43.770;4.008;2023-04-09T09:53:00;0.50;;;0.30;;
13973;SDS011;7060;43.770;4.008;2023-04-09T09:55:31;0.80;;;0.40;;
13973;SDS011;7060;43.770;4.008;2023-04-09T09:58:02;0.73;;;0.27;;
13973;SDS011;7060;43.770;4.008;2023-04-09T10:00:38;0.87;;;0.37;;
13973;SDS011;7060;43.770;4.008;2023-04-09T10:03:11;1.37;;;0.50;;
13973;SDS011;7060;43.770;4.008;2023-04-09T10:05:42;0.43;;;0.40;;
13973;SDS011;7060;43.770;4.008;2023-04-09T10:08:13;1.63;;;0.50;;
13973;SDS011;7060;43.770;4.008;2023-04-09T10:10:42;0.60;;;0.40;;
13973;SDS011;7060;43.770;4.008;2023-04-09T10:13:13;1.60;;;0.50;;
13973;SDS011;7060;43.770;4.008;2023-04-09T10:15:44;0.73;;;0.50;;
13973;SDS011;7060;43.770;4.008;2023-04-09T10:18:14;0.70;;;0.50;;
13973;SDS011;7060;43.770;4.008;2023-04-09T10:20:45;0.83;;;0.63;;
13973;SDS011;7060;43.770;4.008;2023-04-09T10:23:21;0.50;;;0.40;;
13973;SDS011;7060;43.770;4.008;2023-04-09T10:25:59;1.40;;;0.57;;
13973;SDS011;7060;43.770;4.008;2023-04-09T10:28:28;0.43;;;0.30;;
13973;SDS011;7060;43.770;4.008;2023-04-09T10:30:57;0.73;;;0.47;;
13973;SDS011;7060;43.770;4.008;2023-04-09T10:33:27;0.83;;;0.67;;
13973;SDS011;7060;43.770;4.008;2023-04-09T10:35:58;1.23;;;0.80;;
13973;SDS011;7060;43.770;4.008;2023-04-09T10:38:36;0.60;;;0.57;;
13973;SDS011;7060;43.770;4.008;2023-04-09T10:41:07;1.10;;;0.50;;
13973;SDS011;7060;43.770;4.008;2023-04-09T10:43:39;0.87;;;0.57;;
13973;SDS011;7060;43.770;4.008;2023-04-09T10:49:09;1.30;;;0.50;;
13973;SDS011;7060;43.770;4.008;2023-04-09T10:51:39;0.40;;;0.40;;
13973;SDS011;7060;43.770;4.008;2023-04-09T10:57:16;1.00;;;0.50;;
13973;SDS011;7060;43.770;4.008;2023-04-09T10:59:47;0.87;;;0.40;;
13973;SDS011;7060;43.770;4.008;2023-04-09T11:02:25;1.27;;;0.40;;
13973;SDS011;7060;43.770;4.008;2023-04-09T11:05:17;0.80;;;0.43;;
13973;SDS011;7060;43.770;4.008;2023-04-09T11:07:51;3.73;;;0.60;;
13973;SDS011;7060;43.770;4.008;2023-04-09T11:10:23;1.27;;;0.40;;
13973;SDS011;7060;43.770;4.008;2023-04-09T11:12:52;5.23;;;0.63;;
13973;SDS011;7060;43.770;4.008;2023-04-09T11:15:20;0.40;;;0.40;;
13973;SDS011;7060;43.770;4.008;2023-04-09T11:17:49;0.53;;;0.30;;
13973;SDS011;7060;43.770;4.008;2023-04-09T11:20:19;0.43;;;0.30;;
13973;SDS011;7060;43.770;4.008;2023-04-09T11:22:49;0.70;;;0.33;;
13973;SDS011;7060;43.770;4.008;2023-04-09T11:25:20;0.30;;;0.30;;
13973;SDS011;7060;43.770;4.008;2023-04-09T11:27:51;1.77;;;0.30;;
13973;SDS011;7060;43.770;4.008;2023-04-09T11:30:20;0.53;;;0.40;;
13973;SDS011;7060;43.770;4.008;2023-04-09T11:32:48;0.57;;;0.40;;
13973;SDS011;7060;43.770;4.008;2023-04-09T11:35:18;0.50;;;0.30;;
13973;SDS011;7060;43.770;4.008;2023-04-09T11:37:48;1.00;;;0.30;;
13973;SDS011;7060;43.770;4.008;2023-04-09T11:40:18;0.33;;;0.30;;
13973;SDS011;7060;43.770;4.008;2023-04-09T11:42:48;0.40;;;0.30;;
13973;SDS011;7060;43.770;4.008;2023-04-09T11:45:21;0.90;;;0.30;;
13973;SDS011;7060;43.770;4.008;2023-04-09T11:47:53;0.40;;;0.30;;
13973;SDS011;7060;43.770;4.008;2023-04-09T11:50:22;0.50;;;0.40;;
13973;SDS011;7060;43.770;4.008;2023-04-09T11:52:51;1.47;;;0.30;;
13973;SDS011;7060;43.770;4.008;2023-04-09T11:55:23;0.70;;;0.40;;
13973;SDS011;7060;43.770;4.008;2023-04-09T11:57:56;1.63;;;0.43;;
13973;SDS011;7060;43.770;4.008;2023-04-09T12:00:28;0.70;;;0.43;;
13973;SDS011;7060;43.770;4.008;2023-04-09T12:03:00;0.50;;;0.20;;
13973;SDS011;7060;43.770;4.008;2023-04-09T12:05:31;1.27;;;0.47;;
13973;SDS011;7060;43.770;4.008;2023-04-09T12:08:01;0.37;;;0.30;;
13973;SDS011;7060;43.770;4.008;2023-04-09T12:10:31;0.60;;;0.40;;
13973;SDS011;7060;43.770;4.008;2023-04-09T12:13:01;0.60;;;0.40;;
13973;SDS011;7060;43.770;4.008;2023-04-09T12:15:34;0.50;;;0.40;;
13973;SDS011;7060;43.770;4.008;2023-04-09T12:18:06;0.67;;;0.40;;
13973;SDS011;7060;43.770;4.008;2023-04-09T12:20:37;0.40;;;0.40;;
13973;SDS011;7060;43.770;4.008;2023-04-09T12:23:09;0.20;;;0.20;;
13973;SDS011;7060;43.770;4.008;2023-04-09T12:25:39;1.10;;;0.40;;
13973;SDS011;7060;43.770;4.008;2023-04-09T12:28:10;0.67;;;0.30;;
13973;SDS011;7060;43.770;4.008;2023-04-09T12:30:42;0.60;;;0.20;;
13973;SDS011;7060;43.770;4.008;2023-04-09T12:33:11;0.40;;;0.20;;
13973;SDS011;7060;43.770;4.008;2023-04-09T12:35:40;0.83;;;0.20;;
13973;SDS011;7060;43.770;4.008;2023-04-09T12:38:08;0.70;;;0.20;;
13973;SDS011;7060;43.770;4.008;2023-04-09T12:40:37;0.30;;;0.27;;
13973;SDS011;7060;43.770;4.008;2023-04-09T12:43:06;0.30;;;0.20;;
13973;SDS011;7060;43.770;4.008;2023-04-09T12:45:34;0.30;;;0.30;;
13973;SDS011;7060;43.770;4.008;2023-04-09T12:48:04;0.40;;;0.30;;
13973;SDS011;7060;43.770;4.008;2023-04-09T12:50:33;0.20;;;0.20;;
13973;SDS011;7060;43.770;4.008;2023-04-09T12:53:02;0.87;;;0.33;;
13973;SDS011;7060;43.770;4.008;2023-04-09T12:55:30;2.10;;;0.30;;
13973;SDS011;7060;43.770;4.008;2023-04-09T12:57:59;0.40;;;0.33;;
13973;SDS011;7060;43.770;4.008;2023-04-09T13:00:28;0.53;;;0.20;;
13973;SDS011;7060;43.770;4.008;2023-04-09T13:02:57;0.40;;;0.20;;
13973;SDS011;7060;43.770;4.008;2023-04-09T13:05:27;1.00;;;0.27;;
13973;SDS011;7060;43.770;4.008;2023-04-09T13:07:58;0.50;;;0.30;;
13973;SDS011;7060;43.770;4.008;2023-04-09T13:10:26;0.40;;;0.23;;
13973;SDS011;7060;43.770;4.008;2023-04-09T13:12:56;0.70;;;0.30;;
13973;SDS011;7060;43.770;4.008;2023-04-09T13:15:24;0.70;;;0.50;;
13973;SDS011;7060;43.770;4.008;2023-04-09T13:17:53;0.40;;;0.40;;
13973;SDS011;7060;43.770;4.008;2023-04-09T13:20:22;0.30;;;0.20;;
13973;SDS011;7060;43.770;4.008;2023-04-09T13:22:53;1.47;;;0.30;;
13973;SDS011;7060;43.770;4.008;2023-04-09T13:25:22;0.23;;;0.20;;
13973;SDS011;7060;43.770;4.008;2023-04-09T13:27:50;1.70;;;0.40;;
13973;SDS011;7060;43.770;4.008;2023-04-09T13:30:20;0.40;;;0.20;;
13973;SDS011;7060;43.770;4.008;2023-04-09T13:32:48;0.50;;;0.30;;
13973;SDS011;7060;43.770;4.008;2023-04-09T13:35:17;0.30;;;0.20;;
13973;SDS011;7060;43.770;4.008;2023-04-09T13:37:46;2.27;;;0.30;;
13973;SDS011;7060;43.770;4.008;2023-04-09T13:40:16;0.50;;;0.40;;
13973;SDS011;7060;43.770;4.008;2023-04-09T13:42:44;0.40;;;0.30;;
13973;SDS011;7060;43.770;4.008;2023-04-09T13:45:12;0.50;;;0.30;;
13973;SDS011;7060;43.770;4.008;2023-04-09T13:47:41;0.30;;;0.20;;
13973;SDS011;7060;43.770;4.008;2023-04-09T13:50:10;0.57;;;0.30;;
13973;SDS011;7060;43.770;4.008;2023-04-09T13:52:39;0.60;;;0.23;;
13973;SDS011;7060;43.770;4.008;2023-04-09T13:55:08;0.38;;;0.30;;
13973;SDS011;7060;43.770;4.008;2023-04-09T13:57:38;0.30;;;0.17;;
13973;SDS011;7060;43.770;4.008;2023-04-09T14:00:07;0.40;;;0.20;;
13973;SDS011;7060;43.770;4.008;2023-04-09T14:02:36;0.37;;;0.30;;
13973;SDS011;7060;43.770;4.008;2023-04-09T14:05:05;1.00;;;0.27;;
13973;SDS011;7060;43.770;4.008;2023-04-09T14:07:34;0.40;;;0.40;;
13973;SDS011;7060;43.770;4.008;2023-04-09T14:10:03;0.97;;;0.33;;
13973;SDS011;7060;43.770;4.008;2023-04-09T14:12:32;0.20;;;0.20;;
13973;SDS011;7060;43.770;4.008;2023-04-09T14:15:02;0.73;;;0.30;;
13973;SDS011;7060;43.770;4.008;2023-04-09T14:17:31;0.67;;;0.30;;
13973;SDS011;7060;43.770;4.008;2023-04-09T14:19:59;0.90;;;0.40;;
13973;SDS011;7060;43.770;4.008;2023-04-09T14:22:29;3.15;;;0.70;;
13973;SDS011;7060;43.770;4.008;2023-04-09T14:24:57;0.63;;;0.40;;
13973;SDS011;7060;43.770;4.008;2023-04-09T14:27:27;0.50;;;0.40;;
13973;SDS011;7060;43.770;4.008;2023-04-09T14:29:56;0.38;;;0.30;;
13973;SDS011;7060;43.770;4.008;2023-04-09T14:32:25;0.33;;;0.33;;
13973;SDS011;7060;43.770;4.008;2023-04-09T14:34:54;1.17;;;0.53;;
13973;SDS011;7060;43.770;4.008;2023-04-09T14:37:22;1.47;;;0.50;;
13973;SDS011;7060;43.770;4.008;2023-04-09T14:39:51;1.70;;;0.50;;
13973;SDS011;7060;43.770;4.008;2023-04-09T14:42:19;0.53;;;0.40;;
13973;SDS011;7060;43.770;4.008;2023-04-09T14:44:47;1.23;;;0.50;;
13973;SDS011;7060;43.770;4.008;2023-04-09T14:47:16;0.50;;;0.40;;
13973;SDS011;7060;43.770;4.008;2023-04-09T14:49:46;1.23;;;0.53;;
13973;SDS011;7060;43.770;4.008;2023-04-09T14:52:14;0.83;;;0.50;;
13973;SDS011;7060;43.770;4.008;2023-04-09T14:54:42;0.90;;;0.57;;
13973;SDS011;7060;43.770;4.008;2023-04-09T14:57:12;0.50;;;0.33;;
13973;SDS011;7060;43.770;4.008;2023-04-09T14:59:40;0.77;;;0.50;;
13973;SDS011;7060;43.770;4.008;2023-04-09T15:02:08;1.73;;;0.40;;
13973;SDS011;7060;43.770;4.008;2023-04-09T15:04:37;0.50;;;0.40;;
13973;SDS011;7060;43.770;4.008;2023-04-09T15:07:07;2.85;;;0.52;;
13973;SDS011;7060;43.770;4.008;2023-04-09T15:09:36;0.50;;;0.40;;
13973;SDS011;7060;43.770;4.008;2023-04-09T15:12:06;1.23;;;0.63;;
13973;SDS011;7060;43.770;4.008;2023-04-09T15:14:35;1.27;;;0.60;;
13973;SDS011;7060;43.770;4.008;2023-04-09T15:17:03;2.33;;;0.60;;
13973;SDS011;7060;43.770;4.008;2023-04-09T15:19:32;0.85;;;0.40;;
13973;SDS011;7060;43.770;4.008;2023-04-09T15:22:00;3.15;;;0.40;;
13973;SDS011;7060;43.770;4.008;2023-04-09T15:24:30;0.85;;;0.50;;
13973;SDS011;7060;43.770;4.008;2023-04-09T15:26:58;0.82;;;0.50;;
13973;SDS011;7060;43.770;4.008;2023-04-09T15:29:27;1.17;;;0.63;;